sensor_id;sensor_type;location;lat;lon;timestamp;P1;durP1;ratioP1;P2;durP2;ratioP2
77769;SDS011;66961;51.482;9.160;2023-08-31T00:01:45;17.70;;;9.63;;
77769;SDS011;66961;51.482;9.160;2023-08-31T00:04:10;17.53;;;10.10;;
77769;SDS011;66961;51.482;9.160;2023-08-31T00:06:36;14.77;;;9.90;;
77769;SDS011;66961;51.482;9.160;2023-08-31T00:09:01;19.10;;;10.57;;
77769;SDS011;66961;51.482;9.160;2023-08-31T00:11:26;17.42;;;10.90;;
77769;SDS011;66961;51.482;9.160;2023-08-31T00:13:52;14.40;;;10.63;;
77769;SDS011;66961;51.482;9.160;2023-08-31T00:16:17;17.07;;;10.37;;
77769;SDS011;66961;51.482;9.160;2023-08-31T00:18:42;19.38;;;10.98;;
77769;SDS011;66961;51.482;9.160;2023-08-31T00:21:08;18.67;;;10.23;;
77769;SDS011;66961;51.482;9.160;2023-08-31T00:23:33;20.43;;;12.23;;
77769;SDS011;66961;51.482;9.160;2023-08-31T00:25:58;18.37;;;11.00;;
77769;SDS011;66961;51.482;9.160;2023-08-31T00:28:23;17.17;;;10.37;;
77769;SDS011;66961;51.482;9.160;2023-08-31T00:30:49;17.13;;;10.98;;
77769;SDS011;66961;51.482;9.160;2023-08-31T00:33:14;17.13;;;10.85;;
77769;SDS011;66961;51.482;9.160;2023-08-31T00:35:40;18.58;;;11.25;;
77769;SDS011;66961;51.482;9.160;2023-08-31T00:38:05;18.10;;;10.75;;
77769;SDS011;66961;51.482;9.160;2023-08-31T00:40:31;17.50;;;10.43;;
77769;SDS011;66961;51.482;9.160;2023-08-31T00:42:56;18.07;;;9.77;;
77769;SDS011;66961;51.482;9.160;2023-08-31T00:45:21;18.47;;;11.10;;
77769;SDS011;66961;51.482;9.160;2023-08-31T00:47:46;17.90;;;11.23;;
77769;SDS011;66961;51.482;9.160;2023-08-31T00:50:13;19.35;;;11.13;;
77769;SDS011;66961;51.482;9.160;2023-08-31T00:52:39;21.88;;;11.65;;
77769;SDS011;66961;51.482;9.160;2023-08-31T00:55:05;20.83;;;11.60;;
77769;SDS011;66961;51.482;9.160;2023-08-31T00:57:31;20.90;;;11.13;;
77769;SDS011;66961;51.482;9.160;2023-08-31T00:59:56;18.05;;;10.25;;
77769;SDS011;66961;51.482;9.160;2023-08-31T01:02:23;16.77;;;11.30;;
77769;SDS011;66961;51.482;9.160;2023-08-31T01:07:46;19.73;;;11.13;;
77769;SDS011;66961;51.482;9.160;2023-08-31T01:13:21;21.17;;;11.15;;
77769;SDS011;66961;51.482;9.160;2023-08-31T01:15:51;20.85;;;11.82;;
77769;SDS011;66961;51.482;9.160;2023-08-31T01:18:20;19.58;;;11.25;;
77769;SDS011;66961;51.482;9.160;2023-08-31T01:26:15;20.27;;;11.00;;
77769;SDS011;66961;51.482;9.160;2023-08-31T01:28:41;20.23;;;11.18;;
77769;SDS011;66961;51.482;9.160;2023-08-31T01:31:06;23.55;;;12.85;;
77769;SDS011;66961;51.482;9.160;2023-08-31T01:33:32;24.03;;;13.53;;
77769;SDS011;66961;51.482;9.160;2023-08-31T01:35:57;21.73;;;13.13;;
77769;SDS011;66961;51.482;9.160;2023-08-31T01:38:28;20.65;;;12.95;;
77769;SDS011;66961;51.482;9.160;2023-08-31T01:41:00;23.38;;;13.98;;
77769;SDS011;66961;51.482;9.160;2023-08-31T01:43:30;21.52;;;12.43;;
77769;SDS011;66961;51.482;9.160;2023-08-31T01:45:57;24.85;;;12.95;;
77769;SDS011;66961;51.482;9.160;2023-08-31T01:48:23;21.30;;;12.65;;
77769;SDS011;66961;51.482;9.160;2023-08-31T01:50:48;26.80;;;13.07;;
77769;SDS011;66961;51.482;9.160;2023-08-31T01:53:14;21.83;;;12.45;;
77769;SDS011;66961;51.482;9.160;2023-08-31T01:55:39;30.08;;;13.10;;
77769;SDS011;66961;51.482;9.160;2023-08-31T01:58:04;21.97;;;13.80;;
77769;SDS011;66961;51.482;9.160;2023-08-31T02:00:30;21.13;;;13.50;;
77769;SDS011;66961;51.482;9.160;2023-08-31T02:02:55;21.50;;;13.17;;
77769;SDS011;66961;51.482;9.160;2023-08-31T02:05:20;24.58;;;14.35;;
77769;SDS011;66961;51.482;9.160;2023-08-31T02:07:46;24.70;;;14.07;;
77769;SDS011;66961;51.482;9.160;2023-08-31T02:10:11;22.70;;;14.23;;
77769;SDS011;66961;51.482;9.160;2023-08-31T02:12:36;25.40;;;14.23;;
77769;SDS011;66961;51.482;9.160;2023-08-31T02:15:04;26.60;;;14.57;;
77769;SDS011;66961;51.482;9.160;2023-08-31T02:17:29;20.90;;;13.52;;
77769;SDS011;66961;51.482;9.160;2023-08-31T02:19:55;25.10;;;13.35;;
77769;SDS011;66961;51.482;9.160;2023-08-31T02:22:20;25.02;;;13.18;;
77769;SDS011;66961;51.482;9.160;2023-08-31T02:24:46;23.63;;;13.47;;
77769;SDS011;66961;51.482;9.160;2023-08-31T02:27:11;23.47;;;14.70;;
77769;SDS011;66961;51.482;9.160;2023-08-31T02:29:36;26.97;;;14.23;;
77769;SDS011;66961;51.482;9.160;2023-08-31T02:32:05;27.07;;;14.87;;
77769;SDS011;66961;51.482;9.160;2023-08-31T02:34:30;23.80;;;15.15;;
77769;SDS011;66961;51.482;9.160;2023-08-31T02:36:55;23.88;;;14.35;;
77769;SDS011;66961;51.482;9.160;2023-08-31T02:39:21;25.33;;;15.02;;
77769;SDS011;66961;51.482;9.160;2023-08-31T02:41:46;26.05;;;15.20;;
77769;SDS011;66961;51.482;9.160;2023-08-31T02:44:12;20.73;;;14.70;;
77769;SDS011;66961;51.482;9.160;2023-08-31T02:46:37;25.80;;;15.43;;
77769;SDS011;66961;51.482;9.160;2023-08-31T02:49:02;23.23;;;15.20;;
77769;SDS011;66961;51.482;9.160;2023-08-31T02:51:28;25.58;;;14.93;;
77769;SDS011;66961;51.482;9.160;2023-08-31T02:53:53;28.53;;;16.73;;
77769;SDS011;66961;51.482;9.160;2023-08-31T02:56:18;24.60;;;14.30;;
77769;SDS011;66961;51.482;9.160;2023-08-31T02:58:44;27.15;;;15.52;;
77769;SDS011;66961;51.482;9.160;2023-08-31T03:01:10;28.57;;;16.10;;
77769;SDS011;66961;51.482;9.160;2023-08-31T03:03:37;31.17;;;16.40;;
77769;SDS011;66961;51.482;9.160;2023-08-31T03:06:03;25.48;;;16.30;;
77769;SDS011;66961;51.482;9.160;2023-08-31T03:08:28;29.23;;;16.73;;
77769;SDS011;66961;51.482;9.160;2023-08-31T03:10:53;27.00;;;15.13;;
77769;SDS011;66961;51.482;9.160;2023-08-31T03:13:21;27.20;;;15.00;;
77769;SDS011;66961;51.482;9.160;2023-08-31T03:15:47;24.07;;;14.93;;
77769;SDS011;66961;51.482;9.160;2023-08-31T03:18:12;22.53;;;14.93;;
77769;SDS011;66961;51.482;9.160;2023-08-31T03:20:37;21.07;;;13.93;;
77769;SDS011;66961;51.482;9.160;2023-08-31T03:23:02;22.13;;;13.70;;
77769;SDS011;66961;51.482;9.160;2023-08-31T03:25:28;23.80;;;15.82;;
77769;SDS011;66961;51.482;9.160;2023-08-31T03:27:53;22.90;;;14.57;;
77769;SDS011;66961;51.482;9.160;2023-08-31T03:30:18;19.85;;;14.43;;
77769;SDS011;66961;51.482;9.160;2023-08-31T03:32:44;29.10;;;15.93;;
77769;SDS011;66961;51.482;9.160;2023-08-31T03:35:10;23.65;;;15.38;;
77769;SDS011;66961;51.482;9.160;2023-08-31T03:37:35;23.63;;;14.98;;
77769;SDS011;66961;51.482;9.160;2023-08-31T03:40:00;32.87;;;15.83;;
77769;SDS011;66961;51.482;9.160;2023-08-31T03:42:26;25.33;;;15.23;;
77769;SDS011;66961;51.482;9.160;2023-08-31T03:44:51;29.17;;;15.43;;
77769;SDS011;66961;51.482;9.160;2023-08-31T03:47:16;27.37;;;16.00;;
77769;SDS011;66961;51.482;9.160;2023-08-31T03:49:42;26.85;;;16.20;;
77769;SDS011;66961;51.482;9.160;2023-08-31T03:52:07;24.05;;;15.18;;
77769;SDS011;66961;51.482;9.160;2023-08-31T03:54:32;26.40;;;14.93;;
77769;SDS011;66961;51.482;9.160;2023-08-31T03:56:58;27.20;;;16.13;;
77769;SDS011;66961;51.482;9.160;2023-08-31T03:59:23;31.07;;;19.43;;
77769;SDS011;66961;51.482;9.160;2023-08-31T04:01:48;29.87;;;15.43;;
77769;SDS011;66961;51.482;9.160;2023-08-31T04:04:14;24.75;;;14.80;;
77769;SDS011;66961;51.482;9.160;2023-08-31T04:06:39;23.38;;;15.00;;
77769;SDS011;66961;51.482;9.160;2023-08-31T04:09:04;24.27;;;14.50;;
77769;SDS011;66961;51.482;9.160;2023-08-31T04:11:30;23.83;;;14.48;;
77769;SDS011;66961;51.482;9.160;2023-08-31T04:13:55;24.33;;;13.63;;
77769;SDS011;66961;51.482;9.160;2023-08-31T04:16:20;24.13;;;15.33;;
77769;SDS011;66961;51.482;9.160;2023-08-31T04:18:46;23.05;;;15.18;;
77769;SDS011;66961;51.482;9.160;2023-08-31T04:21:11;24.87;;;15.13;;
77769;SDS011;66961;51.482;9.160;2023-08-31T04:23:37;24.13;;;14.07;;
77769;SDS011;66961;51.482;9.160;2023-08-31T04:26:09;27.27;;;13.50;;
77769;SDS011;66961;51.482;9.160;2023-08-31T04:28:35;23.92;;;14.10;;
77769;SDS011;66961;51.482;9.160;2023-08-31T04:31:01;22.33;;;14.00;;
77769;SDS011;66961;51.482;9.160;2023-08-31T04:33:29;21.23;;;13.43;;
77769;SDS011;66961;51.482;9.160;2023-08-31T04:35:55;23.52;;;14.27;;
77769;SDS011;66961;51.482;9.160;2023-08-31T04:38:20;23.98;;;13.57;;
77769;SDS011;66961;51.482;9.160;2023-08-31T04:40:45;21.17;;;11.97;;
77769;SDS011;66961;51.482;9.160;2023-08-31T04:43:10;19.87;;;12.37;;
77769;SDS011;66961;51.482;9.160;2023-08-31T04:45:36;21.57;;;13.53;;
77769;SDS011;66961;51.482;9.160;2023-08-31T04:48:01;21.67;;;13.50;;
77769;SDS011;66961;51.482;9.160;2023-08-31T04:50:27;20.70;;;11.57;;
77769;SDS011;66961;51.482;9.160;2023-08-31T04:52:52;20.10;;;12.80;;
77769;SDS011;66961;51.482;9.160;2023-08-31T04:55:18;21.70;;;12.93;;
77769;SDS011;66961;51.482;9.160;2023-08-31T04:57:46;20.73;;;12.30;;
77769;SDS011;66961;51.482;9.160;2023-08-31T05:00:12;16.90;;;10.73;;
77769;SDS011;66961;51.482;9.160;2023-08-31T05:02:38;17.83;;;10.82;;
77769;SDS011;66961;51.482;9.160;2023-08-31T05:05:04;20.38;;;11.77;;
77769;SDS011;66961;51.482;9.160;2023-08-31T05:07:29;19.27;;;11.23;;
77769;SDS011;66961;51.482;9.160;2023-08-31T05:09:54;23.10;;;12.63;;
77769;SDS011;66961;51.482;9.160;2023-08-31T05:12:20;22.43;;;12.30;;
77769;SDS011;66961;51.482;9.160;2023-08-31T05:14:45;20.63;;;12.30;;
77769;SDS011;66961;51.482;9.160;2023-08-31T05:17:10;22.70;;;11.67;;
77769;SDS011;66961;51.482;9.160;2023-08-31T05:19:36;22.20;;;12.23;;
77769;SDS011;66961;51.482;9.160;2023-08-31T05:22:01;21.97;;;12.63;;
77769;SDS011;66961;51.482;9.160;2023-08-31T05:24:26;24.30;;;12.95;;
77769;SDS011;66961;51.482;9.160;2023-08-31T05:26:52;22.83;;;12.40;;
77769;SDS011;66961;51.482;9.160;2023-08-31T05:29:17;20.83;;;13.00;;
77769;SDS011;66961;51.482;9.160;2023-08-31T05:31:42;24.60;;;13.33;;
77769;SDS011;66961;51.482;9.160;2023-08-31T05:34:15;22.20;;;13.65;;
77769;SDS011;66961;51.482;9.160;2023-08-31T05:36:41;20.95;;;12.60;;
77769;SDS011;66961;51.482;9.160;2023-08-31T05:39:06;21.15;;;12.60;;
77769;SDS011;66961;51.482;9.160;2023-08-31T05:41:32;23.23;;;13.00;;
77769;SDS011;66961;51.482;9.160;2023-08-31T05:43:57;20.90;;;12.95;;
77769;SDS011;66961;51.482;9.160;2023-08-31T05:46:22;23.40;;;12.80;;
77769;SDS011;66961;51.482;9.160;2023-08-31T05:48:48;20.00;;;12.13;;
77769;SDS011;66961;51.482;9.160;2023-08-31T05:51:13;19.47;;;12.30;;
77769;SDS011;66961;51.482;9.160;2023-08-31T05:53:38;21.55;;;13.30;;
77769;SDS011;66961;51.482;9.160;2023-08-31T05:56:03;22.33;;;13.13;;
77769;SDS011;66961;51.482;9.160;2023-08-31T05:58:32;19.80;;;12.38;;
77769;SDS011;66961;51.482;9.160;2023-08-31T06:00:59;21.05;;;13.65;;
77769;SDS011;66961;51.482;9.160;2023-08-31T06:03:28;21.23;;;13.10;;
77769;SDS011;66961;51.482;9.160;2023-08-31T06:05:53;16.58;;;11.90;;
77769;SDS011;66961;51.482;9.160;2023-08-31T06:08:19;22.40;;;12.73;;
77769;SDS011;66961;51.482;9.160;2023-08-31T06:10:44;19.30;;;12.48;;
77769;SDS011;66961;51.482;9.160;2023-08-31T06:13:09;21.20;;;12.73;;
77769;SDS011;66961;51.482;9.160;2023-08-31T06:15:35;19.27;;;12.27;;
77769;SDS011;66961;51.482;9.160;2023-08-31T06:18:00;18.00;;;12.07;;
77769;SDS011;66961;51.482;9.160;2023-08-31T06:20:25;21.57;;;12.73;;
77769;SDS011;66961;51.482;9.160;2023-08-31T06:22:51;18.47;;;12.10;;
77769;SDS011;66961;51.482;9.160;2023-08-31T06:25:16;17.70;;;12.70;;
77769;SDS011;66961;51.482;9.160;2023-08-31T06:27:41;24.35;;;13.85;;
77769;SDS011;66961;51.482;9.160;2023-08-31T06:30:07;18.08;;;11.93;;
77769;SDS011;66961;51.482;9.160;2023-08-31T06:32:33;17.25;;;12.02;;
77769;SDS011;66961;51.482;9.160;2023-08-31T06:34:58;18.87;;;12.30;;
77769;SDS011;66961;51.482;9.160;2023-08-31T06:37:23;14.40;;;11.07;;
77769;SDS011;66961;51.482;9.160;2023-08-31T06:39:49;14.47;;;10.00;;
77769;SDS011;66961;51.482;9.160;2023-08-31T06:42:14;14.00;;;9.40;;
77769;SDS011;66961;51.482;9.160;2023-08-31T06:44:39;13.17;;;9.13;;
77769;SDS011;66961;51.482;9.160;2023-08-31T06:47:04;16.87;;;9.43;;
77769;SDS011;66961;51.482;9.160;2023-08-31T06:49:30;13.93;;;10.10;;
77769;SDS011;66961;51.482;9.160;2023-08-31T06:51:55;12.73;;;8.48;;
77769;SDS011;66961;51.482;9.160;2023-08-31T06:54:20;11.02;;;7.72;;
77769;SDS011;66961;51.482;9.160;2023-08-31T06:56:47;11.80;;;8.67;;
77769;SDS011;66961;51.482;9.160;2023-08-31T06:59:12;8.93;;;6.93;;
77769;SDS011;66961;51.482;9.160;2023-08-31T07:01:37;9.65;;;6.97;;
77769;SDS011;66961;51.482;9.160;2023-08-31T07:04:03;10.40;;;7.38;;
77769;SDS011;66961;51.482;9.160;2023-08-31T07:06:28;9.65;;;6.82;;
77769;SDS011;66961;51.482;9.160;2023-08-31T07:08:53;7.30;;;6.13;;
77769;SDS011;66961;51.482;9.160;2023-08-31T07:11:19;9.87;;;6.63;;
77769;SDS011;66961;51.482;9.160;2023-08-31T07:13:44;7.25;;;5.95;;
77769;SDS011;66961;51.482;9.160;2023-08-31T07:16:09;8.07;;;5.30;;
77769;SDS011;66961;51.482;9.160;2023-08-31T07:18:35;7.67;;;5.70;;
77769;SDS011;66961;51.482;9.160;2023-08-31T07:21:01;5.05;;;4.38;;
77769;SDS011;66961;51.482;9.160;2023-08-31T07:23:26;7.25;;;4.95;;
77769;SDS011;66961;51.482;9.160;2023-08-31T07:25:52;7.90;;;5.25;;
77769;SDS011;66961;51.482;9.160;2023-08-31T07:28:17;5.43;;;4.50;;
77769;SDS011;66961;51.482;9.160;2023-08-31T07:30:42;6.43;;;5.38;;
77769;SDS011;66961;51.482;9.160;2023-08-31T07:33:08;5.13;;;3.97;;
77769;SDS011;66961;51.482;9.160;2023-08-31T07:35:33;4.93;;;3.97;;
77769;SDS011;66961;51.482;9.160;2023-08-31T07:37:58;5.13;;;3.57;;
77769;SDS011;66961;51.482;9.160;2023-08-31T07:40:24;5.07;;;3.50;;
77769;SDS011;66961;51.482;9.160;2023-08-31T07:42:49;4.57;;;4.13;;
77769;SDS011;66961;51.482;9.160;2023-08-31T07:45:14;4.57;;;3.40;;
77769;SDS011;66961;51.482;9.160;2023-08-31T07:47:39;5.43;;;4.00;;
77769;SDS011;66961;51.482;9.160;2023-08-31T07:50:05;6.10;;;3.47;;
77769;SDS011;66961;51.482;9.160;2023-08-31T07:52:31;4.18;;;3.00;;
77769;SDS011;66961;51.482;9.160;2023-08-31T07:54:56;4.13;;;2.90;;
77769;SDS011;66961;51.482;9.160;2023-08-31T07:57:21;4.97;;;3.25;;
77769;SDS011;66961;51.482;9.160;2023-08-31T07:59:46;5.33;;;3.03;;
77769;SDS011;66961;51.482;9.160;2023-08-31T08:02:12;4.03;;;2.70;;
77769;SDS011;66961;51.482;9.160;2023-08-31T08:04:37;3.63;;;2.60;;
77769;SDS011;66961;51.482;9.160;2023-08-31T08:07:02;3.40;;;2.43;;
77769;SDS011;66961;51.482;9.160;2023-08-31T08:09:28;4.93;;;3.08;;
77769;SDS011;66961;51.482;9.160;2023-08-31T08:11:53;6.63;;;3.45;;
77769;SDS011;66961;51.482;9.160;2023-08-31T08:14:19;3.87;;;2.50;;
77769;SDS011;66961;51.482;9.160;2023-08-31T08:16:45;4.47;;;2.77;;
77769;SDS011;66961;51.482;9.160;2023-08-31T08:19:10;3.67;;;2.70;;
77769;SDS011;66961;51.482;9.160;2023-08-31T08:21:35;3.53;;;2.10;;
77769;SDS011;66961;51.482;9.160;2023-08-31T08:24:01;4.53;;;2.70;;
77769;SDS011;66961;51.482;9.160;2023-08-31T08:26:26;5.20;;;2.55;;
77769;SDS011;66961;51.482;9.160;2023-08-31T08:28:51;5.03;;;2.17;;
77769;SDS011;66961;51.482;9.160;2023-08-31T08:31:17;4.00;;;2.00;;
77769;SDS011;66961;51.482;9.160;2023-08-31T08:33:42;3.67;;;2.15;;
77769;SDS011;66961;51.482;9.160;2023-08-31T08:36:07;4.50;;;2.17;;
77769;SDS011;66961;51.482;9.160;2023-08-31T08:38:32;4.70;;;2.30;;
77769;SDS011;66961;51.482;9.160;2023-08-31T08:41:03;5.47;;;2.20;;
77769;SDS011;66961;51.482;9.160;2023-08-31T08:43:31;4.53;;;2.13;;
77769;SDS011;66961;51.482;9.160;2023-08-31T08:46:00;5.15;;;2.08;;
77769;SDS011;66961;51.482;9.160;2023-08-31T08:48:30;3.42;;;1.92;;
77769;SDS011;66961;51.482;9.160;2023-08-31T08:50:55;3.17;;;1.80;;
77769;SDS011;66961;51.482;9.160;2023-08-31T08:53:22;2.42;;;1.88;;
77769;SDS011;66961;51.482;9.160;2023-08-31T08:55:47;3.80;;;1.98;;
77769;SDS011;66961;51.482;9.160;2023-08-31T08:58:12;3.63;;;1.58;;
77769;SDS011;66961;51.482;9.160;2023-08-31T09:00:37;4.53;;;2.13;;
77769;SDS011;66961;51.482;9.160;2023-08-31T09:03:03;2.83;;;1.83;;
77769;SDS011;66961;51.482;9.160;2023-08-31T09:05:32;3.25;;;1.83;;
77769;SDS011;66961;51.482;9.160;2023-08-31T09:08:05;2.92;;;1.70;;
77769;SDS011;66961;51.482;9.160;2023-08-31T09:13:13;3.33;;;2.00;;
77769;SDS011;66961;51.482;9.160;2023-08-31T09:15:40;3.30;;;1.95;;
77769;SDS011;66961;51.482;9.160;2023-08-31T09:18:06;3.22;;;1.95;;
77769;SDS011;66961;51.482;9.160;2023-08-31T09:20:31;2.88;;;1.92;;
77769;SDS011;66961;51.482;9.160;2023-08-31T09:23:08;4.00;;;2.30;;
77769;SDS011;66961;51.482;9.160;2023-08-31T09:25:37;2.90;;;1.70;;
77769;SDS011;66961;51.482;9.160;2023-08-31T09:28:06;4.22;;;1.95;;
77769;SDS011;66961;51.482;9.160;2023-08-31T09:30:35;3.88;;;1.83;;
77769;SDS011;66961;51.482;9.160;2023-08-31T09:33:04;4.03;;;1.38;;
77769;SDS011;66961;51.482;9.160;2023-08-31T09:35:30;3.70;;;1.52;;
77769;SDS011;66961;51.482;9.160;2023-08-31T09:37:55;2.08;;;1.05;;
77769;SDS011;66961;51.482;9.160;2023-08-31T09:40:21;5.97;;;1.70;;
77769;SDS011;66961;51.482;9.160;2023-08-31T09:42:49;3.85;;;1.50;;
77769;SDS011;66961;51.482;9.160;2023-08-31T09:45:16;5.70;;;2.10;;
77769;SDS011;66961;51.482;9.160;2023-08-31T09:47:43;2.92;;;1.30;;
77769;SDS011;66961;51.482;9.160;2023-08-31T09:50:08;4.38;;;1.50;;
77769;SDS011;66961;51.482;9.160;2023-08-31T09:52:35;3.17;;;1.42;;
77769;SDS011;66961;51.482;9.160;2023-08-31T09:55:02;2.55;;;1.30;;
77769;SDS011;66961;51.482;9.160;2023-08-31T09:57:29;2.42;;;1.20;;
77769;SDS011;66961;51.482;9.160;2023-08-31T09:59:55;1.80;;;1.23;;
77769;SDS011;66961;51.482;9.160;2023-08-31T10:02:22;4.00;;;1.20;;
77769;SDS011;66961;51.482;9.160;2023-08-31T10:04:47;3.58;;;1.50;;
77769;SDS011;66961;51.482;9.160;2023-08-31T10:07:14;2.45;;;1.00;;
77769;SDS011;66961;51.482;9.160;2023-08-31T10:09:40;4.68;;;1.30;;
77769;SDS011;66961;51.482;9.160;2023-08-31T10:12:06;2.55;;;1.05;;
77769;SDS011;66961;51.482;9.160;2023-08-31T10:14:32;2.22;;;1.10;;
77769;SDS011;66961;51.482;9.160;2023-08-31T10:16:58;3.05;;;1.25;;
77769;SDS011;66961;51.482;9.160;2023-08-31T10:19:23;2.83;;;1.02;;
77769;SDS011;66961;51.482;9.160;2023-08-31T10:21:49;4.87;;;0.80;;
77769;SDS011;66961;51.482;9.160;2023-08-31T10:24:14;3.20;;;1.00;;
77769;SDS011;66961;51.482;9.160;2023-08-31T10:26:40;2.87;;;1.20;;
77769;SDS011;66961;51.482;9.160;2023-08-31T10:29:05;2.53;;;0.70;;
77769;SDS011;66961;51.482;9.160;2023-08-31T10:31:33;1.85;;;0.45;;
77769;SDS011;66961;51.482;9.160;2023-08-31T10:34:00;1.55;;;0.60;;
77769;SDS011;66961;51.482;9.160;2023-08-31T10:36:39;1.50;;;0.68;;
77769;SDS011;66961;51.482;9.160;2023-08-31T10:39:12;1.85;;;0.77;;
77769;SDS011;66961;51.482;9.160;2023-08-31T10:41:37;2.25;;;0.80;;
77769;SDS011;66961;51.482;9.160;2023-08-31T10:44:17;1.40;;;0.70;;
77769;SDS011;66961;51.482;9.160;2023-08-31T10:51:37;2.73;;;0.70;;
77769;SDS011;66961;51.482;9.160;2023-08-31T10:54:04;1.73;;;0.85;;
77769;SDS011;66961;51.482;9.160;2023-08-31T10:56:29;1.48;;;0.70;;
77769;SDS011;66961;51.482;9.160;2023-08-31T10:59:01;1.45;;;0.90;;
77769;SDS011;66961;51.482;9.160;2023-08-31T11:04:20;1.88;;;1.40;;
77769;SDS011;66961;51.482;9.160;2023-08-31T11:06:46;2.40;;;1.85;;
77769;SDS011;66961;51.482;9.160;2023-08-31T11:09:18;2.30;;;1.23;;
77769;SDS011;66961;51.482;9.160;2023-08-31T11:11:45;1.80;;;1.13;;
77769;SDS011;66961;51.482;9.160;2023-08-31T11:14:11;2.63;;;1.30;;
77769;SDS011;66961;51.482;9.160;2023-08-31T11:16:39;3.87;;;1.00;;
77769;SDS011;66961;51.482;9.160;2023-08-31T11:19:05;2.67;;;1.27;;
77769;SDS011;66961;51.482;9.160;2023-08-31T11:21:30;3.13;;;0.93;;
77769;SDS011;66961;51.482;9.160;2023-08-31T11:23:56;2.85;;;1.00;;
77769;SDS011;66961;51.482;9.160;2023-08-31T11:26:21;1.55;;;0.90;;
77769;SDS011;66961;51.482;9.160;2023-08-31T11:28:47;2.10;;;1.05;;
77769;SDS011;66961;51.482;9.160;2023-08-31T11:31:12;2.00;;;0.88;;
77769;SDS011;66961;51.482;9.160;2023-08-31T11:33:37;3.85;;;0.82;;
77769;SDS011;66961;51.482;9.160;2023-08-31T11:36:03;2.15;;;0.85;;
77769;SDS011;66961;51.482;9.160;2023-08-31T11:38:28;2.80;;;0.82;;
77769;SDS011;66961;51.482;9.160;2023-08-31T11:40:56;2.08;;;0.80;;
77769;SDS011;66961;51.482;9.160;2023-08-31T11:43:22;1.23;;;0.73;;
77769;SDS011;66961;51.482;9.160;2023-08-31T11:45:47;2.67;;;0.95;;
77769;SDS011;66961;51.482;9.160;2023-08-31T11:48:12;2.85;;;0.90;;
77769;SDS011;66961;51.482;9.160;2023-08-31T11:50:38;1.50;;;0.70;;
77769;SDS011;66961;51.482;9.160;2023-08-31T11:53:04;2.30;;;0.80;;
77769;SDS011;66961;51.482;9.160;2023-08-31T11:55:29;3.28;;;0.98;;
77769;SDS011;66961;51.482;9.160;2023-08-31T11:57:58;1.70;;;0.65;;
77769;SDS011;66961;51.482;9.160;2023-08-31T12:00:23;2.90;;;0.90;;
77769;SDS011;66961;51.482;9.160;2023-08-31T12:02:58;4.00;;;1.05;;
77769;SDS011;66961;51.482;9.160;2023-08-31T12:05:27;2.30;;;1.08;;
77769;SDS011;66961;51.482;9.160;2023-08-31T12:07:56;1.80;;;1.00;;
77769;SDS011;66961;51.482;9.160;2023-08-31T12:10:23;2.20;;;0.85;;
77769;SDS011;66961;51.482;9.160;2023-08-31T12:12:49;1.25;;;0.80;;
77769;SDS011;66961;51.482;9.160;2023-08-31T12:15:15;1.90;;;1.03;;
77769;SDS011;66961;51.482;9.160;2023-08-31T12:17:40;1.48;;;1.10;;
77769;SDS011;66961;51.482;9.160;2023-08-31T12:20:06;3.38;;;0.82;;
77769;SDS011;66961;51.482;9.160;2023-08-31T12:22:32;2.50;;;1.02;;
77769;SDS011;66961;51.482;9.160;2023-08-31T12:24:57;1.63;;;0.80;;
77769;SDS011;66961;51.482;9.160;2023-08-31T12:27:23;2.72;;;1.20;;
77769;SDS011;66961;51.482;9.160;2023-08-31T12:29:48;1.75;;;1.23;;
77769;SDS011;66961;51.482;9.160;2023-08-31T12:32:13;2.37;;;1.23;;
77769;SDS011;66961;51.482;9.160;2023-08-31T12:34:39;2.83;;;1.00;;
77769;SDS011;66961;51.482;9.160;2023-08-31T12:37:04;3.03;;;1.03;;
77769;SDS011;66961;51.482;9.160;2023-08-31T12:39:29;4.07;;;1.20;;
77769;SDS011;66961;51.482;9.160;2023-08-31T12:41:55;2.92;;;0.95;;
77769;SDS011;66961;51.482;9.160;2023-08-31T12:44:20;1.97;;;1.00;;
77769;SDS011;66961;51.482;9.160;2023-08-31T12:46:45;2.00;;;1.00;;
77769;SDS011;66961;51.482;9.160;2023-08-31T12:49:10;1.93;;;0.90;;
77769;SDS011;66961;51.482;9.160;2023-08-31T12:51:36;3.40;;;0.90;;
77769;SDS011;66961;51.482;9.160;2023-08-31T12:54:01;3.33;;;1.30;;
77769;SDS011;66961;51.482;9.160;2023-08-31T12:56:26;3.20;;;1.00;;
77769;SDS011;66961;51.482;9.160;2023-08-31T12:58:52;2.17;;;1.10;;
77769;SDS011;66961;51.482;9.160;2023-08-31T13:01:19;2.58;;;1.20;;
77769;SDS011;66961;51.482;9.160;2023-08-31T13:03:45;1.30;;;0.88;;
77769;SDS011;66961;51.482;9.160;2023-08-31T13:06:12;2.40;;;0.80;;
77769;SDS011;66961;51.482;9.160;2023-08-31T13:08:37;2.88;;;1.15;;
77769;SDS011;66961;51.482;9.160;2023-08-31T13:11:02;1.77;;;1.10;;
77769;SDS011;66961;51.482;9.160;2023-08-31T13:13:28;3.10;;;1.10;;
77769;SDS011;66961;51.482;9.160;2023-08-31T13:15:53;2.53;;;0.93;;
77769;SDS011;66961;51.482;9.160;2023-08-31T13:18:18;2.63;;;1.03;;
77769;SDS011;66961;51.482;9.160;2023-08-31T13:20:50;2.80;;;1.33;;
77769;SDS011;66961;51.482;9.160;2023-08-31T13:23:20;1.88;;;1.13;;
77769;SDS011;66961;51.482;9.160;2023-08-31T13:25:46;1.83;;;1.00;;
77769;SDS011;66961;51.482;9.160;2023-08-31T13:28:12;3.92;;;1.20;;
77769;SDS011;66961;51.482;9.160;2023-08-31T13:30:38;2.17;;;0.90;;
77769;SDS011;66961;51.482;9.160;2023-08-31T13:33:03;2.70;;;0.90;;
77769;SDS011;66961;51.482;9.160;2023-08-31T13:35:29;2.33;;;0.90;;
77769;SDS011;66961;51.482;9.160;2023-08-31T13:37:54;3.38;;;1.08;;
77769;SDS011;66961;51.482;9.160;2023-08-31T13:40:20;2.10;;;1.00;;
77769;SDS011;66961;51.482;9.160;2023-08-31T13:42:53;1.43;;;0.73;;
77769;SDS011;66961;51.482;9.160;2023-08-31T13:45:20;2.13;;;1.00;;
77769;SDS011;66961;51.482;9.160;2023-08-31T13:47:45;3.38;;;1.20;;
77769;SDS011;66961;51.482;9.160;2023-08-31T13:50:10;2.50;;;0.90;;
77769;SDS011;66961;51.482;9.160;2023-08-31T13:52:36;2.33;;;1.20;;
77769;SDS011;66961;51.482;9.160;2023-08-31T13:55:01;2.80;;;1.10;;
77769;SDS011;66961;51.482;9.160;2023-08-31T13:57:26;2.50;;;1.00;;
77769;SDS011;66961;51.482;9.160;2023-08-31T13:59:51;1.93;;;0.80;;
77769;SDS011;66961;51.482;9.160;2023-08-31T14:02:17;2.47;;;1.07;;
77769;SDS011;66961;51.482;9.160;2023-08-31T14:04:42;2.17;;;1.10;;
77769;SDS011;66961;51.482;9.160;2023-08-31T14:07:07;4.33;;;1.47;;
77769;SDS011;66961;51.482;9.160;2023-08-31T14:09:32;4.67;;;1.10;;
77769;SDS011;66961;51.482;9.160;2023-08-31T14:11:58;3.13;;;1.10;;
77769;SDS011;66961;51.482;9.160;2023-08-31T14:14:23;2.20;;;1.17;;
77769;SDS011;66961;51.482;9.160;2023-08-31T14:16:49;3.33;;;1.23;;
77769;SDS011;66961;51.482;9.160;2023-08-31T14:19:14;3.15;;;1.30;;
77769;SDS011;66961;51.482;9.160;2023-08-31T14:21:39;2.72;;;1.02;;
77769;SDS011;66961;51.482;9.160;2023-08-31T14:24:05;2.58;;;1.02;;
77769;SDS011;66961;51.482;9.160;2023-08-31T14:26:31;2.80;;;1.20;;
77769;SDS011;66961;51.482;9.160;2023-08-31T14:28:56;2.67;;;1.30;;
77769;SDS011;66961;51.482;9.160;2023-08-31T14:31:21;2.75;;;1.13;;
77769;SDS011;66961;51.482;9.160;2023-08-31T14:33:47;2.97;;;1.30;;
77769;SDS011;66961;51.482;9.160;2023-08-31T14:36:14;2.50;;;1.20;;
77769;SDS011;66961;51.482;9.160;2023-08-31T14:38:40;2.58;;;1.40;;
77769;SDS011;66961;51.482;9.160;2023-08-31T14:41:05;3.63;;;1.45;;
77769;SDS011;66961;51.482;9.160;2023-08-31T14:43:31;2.92;;;1.20;;
77769;SDS011;66961;51.482;9.160;2023-08-31T14:45:56;3.22;;;1.35;;
77769;SDS011;66961;51.482;9.160;2023-08-31T14:48:21;1.70;;;1.00;;
77769;SDS011;66961;51.482;9.160;2023-08-31T14:50:46;1.27;;;0.80;;